Time;durP1;ratioP1;P1;durP2;ratioP2;P2;SDS_P1;SDS_P2;PMS_P1;PMS_P2;Temp;Humidity;BMP_temperature;BMP_pressure;BME280_temperature;BME280_humidity;BME280_pressure;Samples;Min_cycle;Max_cycle;Signal;HPM_P1;HPM_P2
2022/12/08 00:00:51;;;;;;;62.65;10.07;;;;;;;23.27;41.42;101952.94;20820595;28;20034;-63
2022/12/08 00:10:53;;;;;;;42.63;9.05;;;;;;;23.37;41.64;101974.50;20833636;28;20037;-64
2022/12/08 00:20:57;;;;;;;48.95;9.77;;;;;;;23.34;41.40;101987.91;20827664;28;20048;-62
2022/12/08 00:30:59;;;;;;;60.75;8.27;;;;;;;23.37;42.04;101996.84;20828860;28;20119;-63
2022/12/08 00:51:41;;;;;;;59.80;9.38;;;;;;;23.38;42.45;102010.56;20784595;28;20085;-65
2022/12/08 01:01:46;;;;;;;55.40;9.00;;;;;;;23.37;42.43;102002.41;20752066;28;20034;-64
2022/12/08 01:11:47;;;;;;;36.92;8.20;;;;;;;23.30;42.81;102002.69;20750518;28;20041;-64
2022/12/08 01:21:49;;;;;;;45.72;8.10;;;;;;;23.33;43.03;102013.31;20752453;28;20088;-64
2022/12/08 01:31:50;;;;;;;31.08;7.53;;;;;;;23.34;42.34;102009.41;20750904;28;20084;-64
2022/12/08 01:41:51;;;;;;;33.60;6.85;;;;;;;23.31;42.29;102007.16;20750036;28;20034;-65
2022/12/08 01:52:10;;;;;;;29.15;7.10;;;;;;;23.30;42.47;102011.91;20749034;28;20084;-65
2022/12/08 02:02:12;;;;;;;24.50;6.70;;;;;;;23.29;42.23;102024.19;20748718;28;20042;-65
2022/12/08 02:12:14;;;;;;;27.80;6.28;;;;;;;23.27;42.17;102048.75;20748151;28;20034;-64
2022/12/08 02:22:31;;;;;;;21.48;6.53;;;;;;;23.10;42.00;102036.94;20746453;28;20100;-65
2022/12/08 02:33:06;;;;;;;18.92;5.93;;;;;;;23.19;41.99;102062.41;20747030;28;20038;-64
2022/12/08 02:43:28;;;;;;;20.00;6.03;;;;;;;23.00;42.16;102031.25;20747285;28;20064;-63
2022/12/08 02:53:31;;;;;;;11.13;5.65;;;;;;;23.14;41.86;102048.38;20799961;28;20049;-65
2022/12/08 03:03:40;;;;;;;16.65;6.05;;;;;;;23.11;41.96;102032.19;20826008;28;20037;-65
2022/12/08 03:13:50;;;;;;;12.52;5.72;;;;;;;23.06;42.12;102021.81;20826468;28;20046;-63
2022/12/08 03:23:55;;;;;;;11.07;4.63;;;;;;;23.05;42.17;102011.78;20826618;28;20033;-63
2022/12/08 03:33:58;;;;;;;11.38;4.70;;;;;;;22.95;41.81;102025.63;20828220;28;20037;-64
2022/12/08 03:43:59;;;;;;;10.05;4.65;;;;;;;22.98;41.99;102039.91;20819175;28;20050;-65
2022/12/08 03:54:01;;;;;;;7.88;4.60;;;;;;;22.97;42.02;102048.56;20825887;28;20049;-65
2022/12/08 04:04:05;;;;;;;8.60;4.63;;;;;;;22.93;41.94;102053.00;20839106;28;20033;-67
2022/12/08 04:14:07;;;;;;;7.82;4.68;;;;;;;22.93;42.21;102053.00;20790736;28;20029;-66
2022/12/08 04:24:08;;;;;;;10.23;4.55;;;;;;;22.88;42.00;102048.19;20804899;28;20053;-67
2022/12/08 04:34:13;;;;;;;8.68;4.10;;;;;;;22.82;42.37;102030.56;20781702;28;20488;-66
2022/12/08 04:44:14;;;;;;;6.90;3.90;;;;;;;22.77;42.39;102027.75;20816011;28;20037;-65
2022/12/08 04:54:15;;;;;;;14.30;6.15;;;;;;;22.76;42.05;102026.03;20835105;28;20045;-66
2022/12/08 05:04:19;;;;;;;8.15;3.88;;;;;;;22.74;42.13;102028.25;20824524;28;20095;-66
2022/12/08 05:14:23;;;;;;;7.80;4.28;;;;;;;22.73;42.44;102017.38;20789910;28;20041;-66
2022/12/08 05:24:25;;;;;;;11.18;4.82;;;;;;;22.63;42.10;102006.94;20829968;28;20095;-67
2022/12/08 05:34:26;;;;;;;7.60;4.20;;;;;;;22.60;42.35;102007.50;20816545;28;20041;-66
2022/12/08 05:44:28;;;;;;;5.20;3.80;;;;;;;22.63;42.43;102032.06;20784189;28;20566;-65
2022/12/08 05:54:29;;;;;;;6.65;3.70;;;;;;;22.63;42.38;102020.06;20814342;28;20451;-66
2022/12/08 06:04:31;;;;;;;6.05;3.50;;;;;;;22.64;42.21;102039.34;20830223;28;20041;-66
2022/12/08 06:14:32;;;;;;;6.15;4.03;;;;;;;22.65;42.11;102046.59;20829938;28;20041;-66
2022/12/08 06:24:33;;;;;;;5.30;3.22;;;;;;;22.69;41.88;102053.34;20829076;28;20032;-66
2022/12/08 06:34:35;;;;;;;4.38;3.47;;;;;;;22.64;41.99;102056.09;20818694;28;20041;-66
2022/12/08 06:44:37;;;;;;;4.57;3.72;;;;;;;22.72;41.85;102071.47;20825565;28;20088;-67
2022/12/08 06:54:39;;;;;;;4.05;3.38;;;;;;;22.75;41.64;102069.00;20823054;28;20053;-66
2022/12/08 07:04:40;;;;;;;4.50;3.15;;;;;;;22.79;42.02;102075.75;20812777;28;20878;-65
2022/12/08 07:14:44;;;;;;;5.03;3.20;;;;;;;22.83;41.91;102079.69;20834082;28;20095;-66
2022/12/08 07:24:48;;;;;;;3.60;2.95;;;;;;;22.87;41.66;102104.28;20837205;28;20026;-65
2022/12/08 07:34:49;;;;;;;3.88;3.03;;;;;;;22.87;41.83;102093.13;20838895;28;20053;-66
2022/12/08 07:44:53;;;;;;;3.67;2.95;;;;;;;22.93;41.47;102114.41;20835543;28;20092;-66
2022/12/08 07:55:00;;;;;;;3.58;3.15;;;;;;;22.94;41.93;102116.06;20838538;28;20118;-66
2022/12/08 08:05:02;;;;;;;3.00;2.70;;;;;;;22.93;41.65;102112.44;20838086;28;20407;-66
2022/12/08 08:15:12;;;;;;;3.83;2.88;;;;;;;22.96;41.67;102119.47;20835308;28;20368;-66
2022/12/08 08:25:14;;;;;;;4.55;3.03;;;;;;;22.99;41.61;102124.50;20816133;28;20042;-66
2022/12/08 08:35:16;;;;;;;3.22;2.50;;;;;;;23.00;41.62;102121.44;20848249;28;20052;-65
2022/12/08 08:45:17;;;;;;;3.58;3.05;;;;;;;23.00;41.74;102112.22;20854747;28;20496;-65
2022/12/08 08:55:18;;;;;;;2.92;2.60;;;;;;;23.04;41.84;102116.16;20836386;28;20052;-66
2022/12/08 09:05:22;;;;;;;2.80;2.60;;;;;;;23.03;41.96;102132.06;20814679;28;20054;-66
2022/12/08 09:15:24;;;;;;;3.13;2.45;;;;;;;23.05;41.64;102137.41;20831007;28;20050;-66
2022/12/08 09:25:28;;;;;;;3.58;2.72;;;;;;;23.04;42.03;102155.25;20829468;28;20399;-66
2022/12/08 09:35:30;;;;;;;3.85;2.70;;;;;;;23.02;41.92;102149.09;20830170;28;20103;-67
2022/12/08 09:45:37;;;;;;;3.13;2.67;;;;;;;23.00;41.72;102149.38;20827399;28;20395;-67
2022/12/08 09:56:18;;;;;;;2.83;2.55;;;;;;;22.94;41.91;102144.00;20826478;28;20049;-66
2022/12/08 10:06:25;;;;;;;3.08;2.78;;;;;;;23.01;41.58;102150.22;20828680;28;20052;-66
2022/12/08 10:16:40;;;;;;;2.58;2.38;;;;;;;22.89;41.64;102152.28;20818019;28;20045;-65
2022/12/08 10:26:42;;;;;;;2.75;2.00;;;;;;;22.96;41.66;102164.97;20825481;28;20514;-65
2022/12/08 10:36:46;;;;;;;2.42;2.22;;;;;;;22.96;41.45;102178.06;20827784;28;20068;-65
2022/12/08 10:46:47;;;;;;;2.72;2.13;;;;;;;22.94;41.77;102205.41;20814256;28;20543;-66
2022/12/08 10:56:54;;;;;;;3.53;2.63;;;;;;;22.92;41.84;102208.47;20808842;28;20125;-65
2022/12/08 11:06:55;;;;;;;2.85;2.30;;;;;;;22.87;41.72;102210.34;20822417;28;20053;-65
2022/12/08 11:17:38;;;;;;;2.35;2.13;;;;;;;22.81;41.61;102240.13;20823605;28;20054;-66
2022/12/08 11:27:43;;;;;;;2.42;2.22;;;;;;;22.87;41.51;102252.22;20777239;28;20060;-65
2022/12/08 11:37:44;;;;;;;1.95;1.73;;;;;;;22.86;41.46;102267.25;20819712;28;20488;-65
2022/12/08 11:47:53;;;;;;;2.55;2.35;;;;;;;22.82;41.47;102265.00;20804696;28;20042;-65
2022/12/08 11:57:59;;;;;;;2.20;2.00;;;;;;;22.81;41.60;102268.88;20829017;28;20057;-66
2022/12/08 12:08:39;;;;;;;2.17;1.98;;;;;;;22.74;41.33;102295.31;20839067;28;20071;-66
2022/12/08 12:18:48;;;;;;;2.10;1.90;;;;;;;22.78;41.80;102328.03;20794901;28;20050;-65
2022/12/08 12:29:18;;;;;;;2.35;2.15;;;;;;;22.71;41.47;102338.50;20831056;28;20538;-65
2022/12/08 12:39:26;;;;;;;15.98;2.80;;;;;;;22.77;41.79;102333.84;20822032;28;20037;-67
2022/12/08 12:49:39;;;;;;;;;;;;;;;22.76;41.62;102346.94;20831677;28;20396;-66
2022/12/08 12:59:51;;;;;;;6.13;2.00;;;;;;;22.76;41.52;102338.56;20835362;28;20334;-66
2022/12/08 13:09:59;;;;;;;4.57;1.85;;;;;;;22.70;41.84;102328.47;20826594;28;20045;-65
2022/12/08 13:20:02;;;;;;;;;;;;;;;22.70;41.31;102322.88;20829562;28;20038;-66
2022/12/08 13:30:41;;;;;;;3.10;1.80;;;;;;;22.69;41.40;102337.94;20813157;28;20429;-66
2022/12/08 13:40:44;;;;;;;3.40;1.67;;;;;;;22.69;41.42;102337.94;20812254;28;20041;-66
2022/12/08 13:50:54;;;;;;;11.27;2.13;;;;;;;22.67;41.64;102320.59;20778073;28;20045;-68
2022/12/08 14:01:12;;;;;;;10.98;1.90;;;;;;;22.65;41.71;102331.19;20777660;28;20096;-67
2022/12/08 14:11:33;;;;;;;7.88;1.80;;;;;;;22.69;41.53;102354.69;20808701;28;20552;-68
2022/12/08 14:21:37;;;;;;;7.28;2.13;;;;;;;22.69;41.97;102343.53;20778027;28;20124;-64
2022/12/08 14:31:39;;;;;;;3.03;1.65;;;;;;;22.68;42.13;102341.84;20778737;28;20049;-65
2022/12/08 14:42:01;;;;;;;6.40;1.95;;;;;;;22.52;42.09;102329.63;20827354;28;20041;-65
2022/12/08 14:52:10;;;;;;;3.58;1.90;;;;;;;22.64;41.57;102349.03;20827642;28;20503;-65
2022/12/08 15:02:14;;;;;;;3.38;1.85;;;;;;;22.62;41.87;102342.88;20826200;28;20046;-65
2022/12/08 15:12:22;;;;;;;3.85;1.80;;;;;;;22.52;41.63;102320.41;20827257;28;20092;-64
2022/12/08 15:22:25;;;;;;;3.00;1.47;;;;;;;22.62;41.86;102353.19;20826536;28;20038;-64
2022/12/08 15:32:29;;;;;;;2.30;1.70;;;;;;;22.61;41.86;102341.19;20830716;28;20045;-65
2022/12/08 15:42:30;;;;;;;2.65;1.25;;;;;;;22.59;41.80;102351.78;20841910;28;20042;-64
2022/12/08 15:52:32;;;;;;;2.65;1.50;;;;;;;22.57;41.31;102334.44;20840798;28;20038;-65
2022/12/08 16:02:36;;;;;;;2.30;1.55;;;;;;;22.55;41.56;102336.66;20839716;28;20108;-65
2022/12/08 16:23:03;;;;;;;2.28;1.40;;;;;;;22.52;41.55;102365.06;20839691;28;20488;-66
2022/12/08 16:33:05;;;;;;;2.85;1.35;;;;;;;22.53;41.29;102401.03;20837797;28;20060;-66
2022/12/08 16:43:08;;;;;;;2.30;1.52;;;;;;;22.57;41.23;102373.50;20834971;28;20042;-66
2022/12/08 16:53:11;;;;;;;1.88;1.15;;;;;;;22.62;41.13;102342.88;20835548;28;20045;-66
2022/12/08 17:03:14;;;;;;;3.28;1.45;;;;;;;22.69;40.86;102315.63;20835378;28;20053;-68
2022/12/08 17:13:16;;;;;;;5.18;1.30;;;;;;;22.75;41.36;102303.41;20834209;28;20049;-69
2022/12/08 17:23:17;;;;;;;2.50;1.13;;;;;;;22.80;41.08;102311.84;20833530;28;20365;-69
2022/12/08 17:33:20;;;;;;;2.60;0.98;;;;;;;22.86;41.32;102297.94;20831116;28;20037;-68
2022/12/08 17:43:22;;;;;;;3.15;1.27;;;;;;;22.89;41.38;102294.63;20830493;28;20052;-68
2022/12/08 17:53:23;;;;;;;9.55;1.30;;;;;;;22.93;41.11;102296.69;20829293;28;20079;-67
2022/12/08 18:03:27;;;;;;;6.05;1.88;;;;;;;22.93;41.46;102281.88;20828570;28;20037;-66
2022/12/08 18:13:29;;;;;;;5.50;1.50;;;;;;;22.98;41.95;102276.34;20829078;28;20392;-74
2022/12/08 18:23:33;;;;;;;5.43;1.27;;;;;;;22.97;42.07;102261.56;20825995;28;20033;-67
2022/12/08 18:33:39;;;;;;;5.30;1.50;;;;;;;22.98;42.28;102262.38;20827015;28;20084;-70
2022/12/08 18:43:41;;;;;;;6.45;1.58;;;;;;;23.00;42.42;102235.91;20827398;28;20029;-64
2022/12/08 18:53:49;;;;;;;7.53;1.67;;;;;;;23.01;42.61;102256.28;20826641;28;20096;-67
2022/12/08 19:03:50;;;;;;;6.38;1.85;;;;;;;23.02;42.39;102246.81;20825596;28;20196;-67
2022/12/08 19:13:53;;;;;;;11.90;1.63;;;;;;;23.01;42.61;102240.38;20841521;28;20045;-66
2022/12/08 19:23:57;;;;;;;6.78;1.30;;;;;;;23.01;42.32;102250.72;20817270;28;20041;-66
2022/12/08 19:33:58;;;;;;;13.10;2.03;;;;;;;23.01;42.26;102253.50;20845139;28;20186;-66
2022/12/08 19:54:19;;;;;;;7.93;1.42;;;;;;;23.05;41.75;102237.91;20839143;28;20041;-66
2022/12/08 20:04:25;;;;;;;5.72;1.52;;;;;;;22.92;41.63;102193.66;20837590;28;20042;-67
2022/12/08 20:14:29;;;;;;;16.83;1.85;;;;;;;23.07;41.66;102210.56;20836158;28;20087;-65
2022/12/08 20:24:34;;;;;;;16.75;2.20;;;;;;;23.07;41.52;102221.72;20836976;28;20421;-67
2022/12/08 20:34:39;;;;;;;11.13;2.30;;;;;;;23.05;41.89;102205.25;20836076;28;20037;-66
2022/12/08 20:44:43;;;;;;;15.55;2.08;;;;;;;23.08;41.90;102234.56;20836166;28;20461;-65
2022/12/08 20:54:44;;;;;;;16.42;2.88;;;;;;;22.73;41.89;102198.75;20833478;28;20099;-67
2022/12/08 21:04:48;;;;;;;31.05;2.78;;;;;;;22.98;41.91;102256.81;20832657;28;20435;-65
2022/12/08 21:14:49;;;;;;;26.23;3.25;;;;;;;23.10;41.94;102277.03;20831163;28;20041;-63
2022/12/08 21:24:54;;;;;;;43.22;4.72;;;;;;;23.09;42.71;102292.09;20829697;28;20044;-66
2022/12/08 21:34:55;;;;;;;32.15;3.92;;;;;;;23.06;42.23;102292.63;20829963;28;20041;-66
2022/12/08 21:44:56;;;;;;;27.13;3.88;;;;;;;23.05;42.54;102274.19;20830827;28;20036;-66
2022/12/08 21:54:58;;;;;;;27.08;3.20;;;;;;;23.08;42.09;102290.41;20829902;28;20053;-66
2022/12/08 22:04:59;;;;;;;26.98;4.28;;;;;;;23.03;42.29;102315.47;20828906;28;20053;-66
2022/12/08 22:15:04;;;;;;;32.75;4.10;;;;;;;22.98;42.21;102326.59;20827530;28;20041;-66
2022/12/08 22:25:09;;;;;;;28.02;4.00;;;;;;;23.05;42.06;102330.03;20827786;28;20041;-66
2022/12/08 22:35:13;;;;;;;24.85;2.97;;;;;;;23.08;41.75;102318.31;20828663;28;20076;-66
2022/12/08 22:45:15;;;;;;;25.30;4.32;;;;;;;23.04;41.73;102322.75;20826912;28;20041;-66
2022/12/08 22:55:16;;;;;;;19.48;3.00;;;;;;;23.04;41.63;102356.25;20826552;28;20052;-66
2022/12/08 23:05:17;;;;;;;23.35;3.28;;;;;;;23.00;41.64;102339.19;20827277;28;20037;-66
2022/12/08 23:15:19;;;;;;;27.63;3.42;;;;;;;23.01;41.41;102338.09;20829173;28;20037;-69
2022/12/08 23:25:21;;;;;;;22.17;3.35;;;;;;;23.01;41.15;102354.84;20830063;28;20046;-67
2022/12/08 23:35:22;;;;;;;18.88;2.92;;;;;;;22.99;40.92;102342.22;20828209;28;20099;-67
2022/12/08 23:45:24;;;;;;;14.95;2.28;;;;;;;22.98;40.98;102321.84;20827811;28;20041;-67
2022/12/08 23:55:26;;;;;;;12.02;2.05;;;;;;;22.96;40.85;102370.69;20831558;28;20369;-67
